sensor_id;sensor_type;location;lat;lon;timestamp;pressure;altitude;pressure_sealevel;temperature;humidity
9935;BME280;5006;41.828;23.478;2022-11-21T00:00:31;89167.59;;;14.88;100.00
9935;BME280;5006;41.828;23.478;2022-11-21T00:01:36;89170.50;;;14.72;100.00
9935;BME280;5006;41.828;23.478;2022-11-21T00:02:42;89169.41;;;14.91;100.00
9935;BME280;5006;41.828;23.478;2022-11-21T00:03:47;89177.06;;;14.37;100.00
9935;BME280;5006;41.828;23.478;2022-11-21T00:04:52;89191.81;;;14.79;100.00
9935;BME280;5006;41.828;23.478;2022-11-21T00:05:57;89196.28;;;14.73;100.00
9935;BME280;5006;41.828;23.478;2022-11-21T00:07:02;89204.66;;;13.82;100.00
9935;BME280;5006;41.828;23.478;2022-11-21T00:08:08;89206.69;;;13.78;100.00
9935;BME280;5006;41.828;23.478;2022-11-21T00:09:14;89213.38;;;13.86;100.00
9935;BME280;5006;41.828;23.478;2022-11-21T00:10:19;89224.56;;;13.72;100.00
9935;BME280;5006;41.828;23.478;2022-11-21T00:11:25;89218.94;;;14.04;100.00
9935;BME280;5006;41.828;23.478;2022-11-21T00:12:30;89183.28;;;14.00;100.00
9935;BME280;5006;41.828;23.478;2022-11-21T00:13:35;89192.81;;;14.72;100.00
9935;BME280;5006;41.828;23.478;2022-11-21T00:14:43;89207.09;;;13.89;100.00
9935;BME280;5006;41.828;23.478;2022-11-21T00:15:47;89229.72;;;14.29;100.00
9935;BME280;5006;41.828;23.478;2022-11-21T00:16:53;89230.28;;;13.99;100.00
9935;BME280;5006;41.828;23.478;2022-11-21T00:18:01;89225.88;;;14.17;100.00
9935;BME280;5006;41.828;23.478;2022-11-21T00:19:07;89205.50;;;14.16;100.00
9935;BME280;5006;41.828;23.478;2022-11-21T00:20:11;89172.19;;;13.98;100.00
9935;BME280;5006;41.828;23.478;2022-11-21T00:21:17;89183.75;;;14.45;100.00
9935;BME280;5006;41.828;23.478;2022-11-21T00:22:23;89177.38;;;14.73;100.00
9935;BME280;5006;41.828;23.478;2022-11-21T00:23:29;89177.91;;;15.02;100.00
9935;BME280;5006;41.828;23.478;2022-11-21T00:24:34;89191.59;;;14.52;100.00
9935;BME280;5006;41.828;23.478;2022-11-21T00:25:40;89180.84;;;14.39;100.00
9935;BME280;5006;41.828;23.478;2022-11-21T00:26:45;89183.41;;;14.43;98.41
9935;BME280;5006;41.828;23.478;2022-11-21T00:27:51;89187.56;;;13.97;99.36
9935;BME280;5006;41.828;23.478;2022-11-21T00:28:56;89154.03;;;14.57;97.51
9935;BME280;5006;41.828;23.478;2022-11-21T00:30:04;89145.22;;;14.44;96.22
9935;BME280;5006;41.828;23.478;2022-11-21T00:31:17;89131.38;;;13.74;95.89
9935;BME280;5006;41.828;23.478;2022-11-21T00:32:24;89139.25;;;14.15;96.15
9935;BME280;5006;41.828;23.478;2022-11-21T00:33:28;89139.59;;;14.17;96.47
9935;BME280;5006;41.828;23.478;2022-11-21T00:34:34;89128.38;;;14.19;97.79
9935;BME280;5006;41.828;23.478;2022-11-21T00:35:40;89137.09;;;14.23;97.55
9935;BME280;5006;41.828;23.478;2022-11-21T00:36:44;89121.56;;;14.14;98.64
9935;BME280;5006;41.828;23.478;2022-11-21T00:37:50;89099.41;;;13.85;98.77
9935;BME280;5006;41.828;23.478;2022-11-21T00:38:55;89093.19;;;13.88;98.14
9935;BME280;5006;41.828;23.478;2022-11-21T00:40:01;89091.28;;;13.64;98.01
9935;BME280;5006;41.828;23.478;2022-11-21T00:41:05;89086.50;;;13.93;95.01
9935;BME280;5006;41.828;23.478;2022-11-21T00:42:11;89091.72;;;13.62;90.30
9935;BME280;5006;41.828;23.478;2022-11-21T00:43:15;89059.41;;;15.04;76.08
9935;BME280;5006;41.828;23.478;2022-11-21T00:44:21;89092.25;;;15.02;76.56
9935;BME280;5006;41.828;23.478;2022-11-21T00:45:27;89067.38;;;14.34;89.20
9935;BME280;5006;41.828;23.478;2022-11-21T00:46:33;89095.25;;;14.52;87.85
9935;BME280;5006;41.828;23.478;2022-11-21T00:47:38;89103.19;;;13.88;88.92
9935;BME280;5006;41.828;23.478;2022-11-21T00:48:44;89104.84;;;14.19;83.02
9935;BME280;5006;41.828;23.478;2022-11-21T00:49:49;89082.25;;;14.60;79.19
9935;BME280;5006;41.828;23.478;2022-11-21T00:50:55;89093.41;;;14.92;76.34
9935;BME280;5006;41.828;23.478;2022-11-21T00:51:59;89083.69;;;14.73;80.37
9935;BME280;5006;41.828;23.478;2022-11-21T00:53:06;89082.19;;;14.51;80.30
9935;BME280;5006;41.828;23.478;2022-11-21T00:54:10;89069.06;;;14.83;77.66
9935;BME280;5006;41.828;23.478;2022-11-21T00:55:16;89072.56;;;14.71;77.43
9935;BME280;5006;41.828;23.478;2022-11-21T00:56:20;89061.22;;;14.76;77.56
9935;BME280;5006;41.828;23.478;2022-11-21T00:57:26;89056.06;;;14.69;76.36
9935;BME280;5006;41.828;23.478;2022-11-21T00:58:31;89080.66;;;14.93;75.24
9935;BME280;5006;41.828;23.478;2022-11-21T00:59:37;89083.44;;;14.59;79.73
9935;BME280;5006;41.828;23.478;2022-11-21T01:00:43;89089.91;;;15.43;82.81
9935;BME280;5006;41.828;23.478;2022-11-21T01:01:49;89091.97;;;14.36;89.18
9935;BME280;5006;41.828;23.478;2022-11-21T01:02:54;89104.16;;;14.40;92.01
9935;BME280;5006;41.828;23.478;2022-11-21T01:03:59;89132.66;;;14.29;93.24
9935;BME280;5006;41.828;23.478;2022-11-21T01:05:04;89133.53;;;13.54;100.00
9935;BME280;5006;41.828;23.478;2022-11-21T01:06:11;89138.97;;;14.01;100.00
9935;BME280;5006;41.828;23.478;2022-11-21T01:07:16;89133.81;;;13.94;100.00
9935;BME280;5006;41.828;23.478;2022-11-21T01:08:22;89137.94;;;13.36;100.00
9935;BME280;5006;41.828;23.478;2022-11-21T01:09:26;89139.47;;;13.37;100.00
9935;BME280;5006;41.828;23.478;2022-11-21T01:10:33;89143.75;;;13.34;100.00
9935;BME280;5006;41.828;23.478;2022-11-21T01:11:37;89151.97;;;13.56;100.00
9935;BME280;5006;41.828;23.478;2022-11-21T01:12:43;89157.00;;;13.66;100.00
9935;BME280;5006;41.828;23.478;2022-11-21T01:13:48;89150.22;;;13.74;100.00
9935;BME280;5006;41.828;23.478;2022-11-21T01:14:57;89136.31;;;13.76;100.00
9935;BME280;5006;41.828;23.478;2022-11-21T01:16:04;89135.31;;;13.82;100.00
9935;BME280;5006;41.828;23.478;2022-11-21T01:17:10;89133.69;;;13.97;100.00
9935;BME280;5006;41.828;23.478;2022-11-21T01:18:14;89136.16;;;13.92;100.00
9935;BME280;5006;41.828;23.478;2022-11-21T01:19:20;89142.41;;;14.91;100.00
9935;BME280;5006;41.828;23.478;2022-11-21T01:20:25;89142.50;;;14.57;100.00
9935;BME280;5006;41.828;23.478;2022-11-21T01:21:31;89150.13;;;14.80;100.00
9935;BME280;5006;41.828;23.478;2022-11-21T01:22:36;89146.84;;;14.42;100.00
9935;BME280;5006;41.828;23.478;2022-11-21T01:23:42;89149.06;;;14.09;100.00
9935;BME280;5006;41.828;23.478;2022-11-21T01:24:47;89147.91;;;13.98;100.00
9935;BME280;5006;41.828;23.478;2022-11-21T01:25:52;89150.09;;;13.78;100.00
9935;BME280;5006;41.828;23.478;2022-11-21T01:26:57;89150.44;;;13.80;100.00
9935;BME280;5006;41.828;23.478;2022-11-21T01:28:03;89154.41;;;13.88;100.00
9935;BME280;5006;41.828;23.478;2022-11-21T01:29:08;89148.72;;;13.73;100.00
9935;BME280;5006;41.828;23.478;2022-11-21T01:30:14;89142.00;;;13.78;100.00
9935;BME280;5006;41.828;23.478;2022-11-21T01:31:22;89138.34;;;13.84;100.00
9935;BME280;5006;41.828;23.478;2022-11-21T01:32:28;89142.97;;;13.84;100.00
9935;BME280;5006;41.828;23.478;2022-11-21T01:33:33;89149.28;;;14.15;100.00
9935;BME280;5006;41.828;23.478;2022-11-21T01:34:39;89147.28;;;13.81;100.00
9935;BME280;5006;41.828;23.478;2022-11-21T01:35:43;89140.31;;;13.59;100.00
9935;BME280;5006;41.828;23.478;2022-11-21T01:36:49;89140.72;;;13.95;100.00
9935;BME280;5006;41.828;23.478;2022-11-21T01:37:55;89129.53;;;14.30;100.00
9935;BME280;5006;41.828;23.478;2022-11-21T01:39:02;89131.94;;;14.50;100.00
9935;BME280;5006;41.828;23.478;2022-11-21T01:40:09;89124.34;;;14.57;100.00
9935;BME280;5006;41.828;23.478;2022-11-21T01:41:17;89115.09;;;14.24;100.00
9935;BME280;5006;41.828;23.478;2022-11-21T01:42:24;89115.56;;;14.66;100.00
9935;BME280;5006;41.828;23.478;2022-11-21T01:43:28;89122.22;;;14.31;100.00
9935;BME280;5006;41.828;23.478;2022-11-21T01:44:52;89121.25;;;14.25;100.00
9935;BME280;5006;41.828;23.478;2022-11-21T01:45:59;89116.13;;;13.93;100.00
9935;BME280;5006;41.828;23.478;2022-11-21T01:47:06;89119.16;;;13.95;100.00
9935;BME280;5006;41.828;23.478;2022-11-21T01:48:11;89121.56;;;14.27;100.00
9935;BME280;5006;41.828;23.478;2022-11-21T01:49:18;89130.91;;;14.35;100.00
9935;BME280;5006;41.828;23.478;2022-11-21T01:50:23;89126.25;;;14.35;100.00
9935;BME280;5006;41.828;23.478;2022-11-21T01:51:31;89122.34;;;14.49;100.00
9935;BME280;5006;41.828;23.478;2022-11-21T01:52:37;89103.72;;;14.85;100.00
9935;BME280;5006;41.828;23.478;2022-11-21T01:53:46;89102.44;;;14.55;100.00
9935;BME280;5006;41.828;23.478;2022-11-21T01:54:54;89102.44;;;14.34;100.00
9935;BME280;5006;41.828;23.478;2022-11-21T01:56:02;89099.34;;;14.23;100.00
9935;BME280;5006;41.828;23.478;2022-11-21T01:57:09;89117.25;;;14.72;100.00
9935;BME280;5006;41.828;23.478;2022-11-21T01:58:17;89115.94;;;14.77;100.00
9935;BME280;5006;41.828;23.478;2022-11-21T01:59:26;89119.44;;;14.86;100.00
9935;BME280;5006;41.828;23.478;2022-11-21T02:00:36;89119.31;;;14.90;100.00
9935;BME280;5006;41.828;23.478;2022-11-21T02:01:43;89123.28;;;14.98;100.00
9935;BME280;5006;41.828;23.478;2022-11-21T02:02:52;89121.63;;;14.36;100.00
9935;BME280;5006;41.828;23.478;2022-11-21T02:04:01;89131.38;;;14.55;100.00
9935;BME280;5006;41.828;23.478;2022-11-21T02:05:11;89124.38;;;14.11;100.00
9935;BME280;5006;41.828;23.478;2022-11-21T02:06:19;89123.09;;;14.15;100.00
9935;BME280;5006;41.828;23.478;2022-11-21T02:07:27;89123.03;;;13.94;100.00
9935;BME280;5006;41.828;23.478;2022-11-21T02:08:35;89134.59;;;13.69;100.00
9935;BME280;5006;41.828;23.478;2022-11-21T02:09:44;89139.44;;;13.74;100.00
9935;BME280;5006;41.828;23.478;2022-11-21T02:10:58;89132.41;;;13.77;100.00
9935;BME280;5006;41.828;23.478;2022-11-21T02:12:09;89126.72;;;13.87;100.00
9935;BME280;5006;41.828;23.478;2022-11-21T02:13:17;89121.56;;;14.48;100.00
9935;BME280;5006;41.828;23.478;2022-11-21T02:14:26;89131.59;;;14.26;100.00
9935;BME280;5006;41.828;23.478;2022-11-21T02:15:33;89136.41;;;13.85;100.00
9935;BME280;5006;41.828;23.478;2022-11-21T02:16:38;89140.44;;;14.14;100.00
9935;BME280;5006;41.828;23.478;2022-11-21T02:17:44;89140.72;;;13.95;100.00
9935;BME280;5006;41.828;23.478;2022-11-21T02:18:50;89151.97;;;13.56;100.00
9935;BME280;5006;41.828;23.478;2022-11-21T02:19:57;89155.81;;;13.17;100.00
9935;BME280;5006;41.828;23.478;2022-11-21T02:21:11;89161.00;;;13.49;100.00
9935;BME280;5006;41.828;23.478;2022-11-21T02:22:26;89160.34;;;13.33;100.00
9935;BME280;5006;41.828;23.478;2022-11-21T02:23:38;89160.25;;;13.61;100.00
9935;BME280;5006;41.828;23.478;2022-11-21T02:24:45;89156.97;;;14.16;100.00
9935;BME280;5006;41.828;23.478;2022-11-21T02:25:54;89156.91;;;14.29;100.00
9935;BME280;5006;41.828;23.478;2022-11-21T02:26:59;89151.25;;;14.02;100.00
9935;BME280;5006;41.828;23.478;2022-11-21T02:28:08;89152.47;;;13.88;100.00
9935;BME280;5006;41.828;23.478;2022-11-21T02:29:14;89144.00;;;14.24;100.00
9935;BME280;5006;41.828;23.478;2022-11-21T02:30:20;89138.56;;;14.36;100.00
9935;BME280;5006;41.828;23.478;2022-11-21T02:31:25;89130.94;;;14.22;100.00
9935;BME280;5006;41.828;23.478;2022-11-21T02:32:33;89137.50;;;13.87;100.00
9935;BME280;5006;41.828;23.478;2022-11-21T02:33:37;89144.19;;;13.83;100.00
9935;BME280;5006;41.828;23.478;2022-11-21T02:34:43;89149.22;;;14.06;100.00
9935;BME280;5006;41.828;23.478;2022-11-21T02:35:55;89142.47;;;14.10;100.00
9935;BME280;5006;41.828;23.478;2022-11-21T02:37:01;89147.34;;;14.03;100.00
9935;BME280;5006;41.828;23.478;2022-11-21T02:38:12;89149.28;;;14.15;100.00
9935;BME280;5006;41.828;23.478;2022-11-21T02:39:25;89153.72;;;14.09;100.00
9935;BME280;5006;41.828;23.478;2022-11-21T02:40:35;89154.50;;;13.84;100.00
9935;BME280;5006;41.828;23.478;2022-11-21T02:41:49;89153.47;;;13.57;100.00
9935;BME280;5006;41.828;23.478;2022-11-21T02:43:05;89159.16;;;13.59;100.00
9935;BME280;5006;41.828;23.478;2022-11-21T02:44:18;89153.03;;;13.46;100.00
9935;BME280;5006;41.828;23.478;2022-11-21T02:45:29;89153.03;;;13.46;100.00
9935;BME280;5006;41.828;23.478;2022-11-21T02:46:35;89149.22;;;13.93;100.00
9935;BME280;5006;41.828;23.478;2022-11-21T02:47:41;89145.44;;;14.71;100.00
9935;BME280;5006;41.828;23.478;2022-11-21T02:48:47;89139.59;;;14.73;100.00
9935;BME280;5006;41.828;23.478;2022-11-21T02:49:55;89142.44;;;14.69;100.00
9935;BME280;5006;41.828;23.478;2022-11-21T02:51:03;89157.78;;;14.38;100.00
9935;BME280;5006;41.828;23.478;2022-11-21T02:52:08;89164.72;;;14.48;100.00
9935;BME280;5006;41.828;23.478;2022-11-21T02:53:16;89168.03;;;14.31;100.00
9935;BME280;5006;41.828;23.478;2022-11-21T02:54:21;89172.38;;;13.91;100.00
9935;BME280;5006;41.828;23.478;2022-11-21T02:55:26;89167.19;;;14.09;100.00
9935;BME280;5006;41.828;23.478;2022-11-21T02:56:32;89176.06;;;13.97;100.00
9935;BME280;5006;41.828;23.478;2022-11-21T02:57:38;89167.00;;;13.91;100.00
9935;BME280;5006;41.828;23.478;2022-11-21T02:58:44;89159.25;;;13.93;100.00
9935;BME280;5006;41.828;23.478;2022-11-21T02:59:49;89158.78;;;14.19;100.00
9935;BME280;5006;41.828;23.478;2022-11-21T03:00:55;89154.53;;;14.65;100.00
9935;BME280;5006;41.828;23.478;2022-11-21T03:01:59;89157.69;;;14.85;100.00
9935;BME280;5006;41.828;23.478;2022-11-21T03:03:06;89157.16;;;14.22;100.00
9935;BME280;5006;41.828;23.478;2022-11-21T03:04:11;89157.19;;;13.84;100.00
9935;BME280;5006;41.828;23.478;2022-11-21T03:05:18;89140.97;;;14.09;100.00
9935;BME280;5006;41.828;23.478;2022-11-21T03:06:23;89142.69;;;14.28;100.00
9935;BME280;5006;41.828;23.478;2022-11-21T03:07:28;89142.53;;;14.66;100.00
9935;BME280;5006;41.828;23.478;2022-11-21T03:08:33;89150.50;;;14.91;100.00
9935;BME280;5006;41.828;23.478;2022-11-21T03:09:39;89155.47;;;15.13;100.00
9935;BME280;5006;41.828;23.478;2022-11-21T03:10:44;89145.63;;;14.98;100.00
9935;BME280;5006;41.828;23.478;2022-11-21T03:11:50;89143.22;;;15.00;100.00
9935;BME280;5006;41.828;23.478;2022-11-21T03:12:56;89142.28;;;15.15;100.00
9935;BME280;5006;41.828;23.478;2022-11-21T03:14:05;89141.06;;;15.16;100.00
9935;BME280;5006;41.828;23.478;2022-11-21T03:15:11;89142.94;;;14.77;100.00
9935;BME280;5006;41.828;23.478;2022-11-21T03:16:17;89144.75;;;14.80;100.00
9935;BME280;5006;41.828;23.478;2022-11-21T03:17:22;89148.13;;;14.93;100.00
9935;BME280;5006;41.828;23.478;2022-11-21T03:18:27;89157.72;;;14.94;100.00
9935;BME280;5006;41.828;23.478;2022-11-21T03:19:32;89154.13;;;14.54;100.00
9935;BME280;5006;41.828;23.478;2022-11-21T03:20:38;89152.94;;;14.55;100.00
9935;BME280;5006;41.828;23.478;2022-11-21T03:21:42;89146.19;;;14.50;100.00
9935;BME280;5006;41.828;23.478;2022-11-21T03:22:48;89151.63;;;14.59;100.00
9935;BME280;5006;41.828;23.478;2022-11-21T03:23:53;89150.31;;;14.64;100.00
9935;BME280;5006;41.828;23.478;2022-11-21T03:25:00;89149.00;;;14.47;100.00
9935;BME280;5006;41.828;23.478;2022-11-21T03:26:04;89141.75;;;14.10;100.00
9935;BME280;5006;41.828;23.478;2022-11-21T03:27:10;89146.59;;;14.27;100.00
9935;BME280;5006;41.828;23.478;2022-11-21T03:28:17;89155.22;;;14.22;100.00
9935;BME280;5006;41.828;23.478;2022-11-21T03:29:22;89152.22;;;14.08;100.00
9935;BME280;5006;41.828;23.478;2022-11-21T03:30:28;89153.31;;;13.98;100.00
9935;BME280;5006;41.828;23.478;2022-11-21T03:31:33;89153.16;;;14.26;100.00
9935;BME280;5006;41.828;23.478;2022-11-21T03:32:38;89152.66;;;14.74;100.00
9935;BME280;5006;41.828;23.478;2022-11-21T03:33:43;89157.56;;;14.88;100.00
9935;BME280;5006;41.828;23.478;2022-11-21T03:34:49;89150.66;;;15.09;100.00
9935;BME280;5006;41.828;23.478;2022-11-21T03:35:53;89145.78;;;15.25;100.00
9935;BME280;5006;41.828;23.478;2022-11-21T03:36:59;89152.78;;;14.92;100.00
9935;BME280;5006;41.828;23.478;2022-11-21T03:38:04;89146.78;;;14.88;100.00
9935;BME280;5006;41.828;23.478;2022-11-21T03:39:09;89145.88;;;14.70;100.00
9935;BME280;5006;41.828;23.478;2022-11-21T03:40:14;89147.63;;;15.07;100.00
9935;BME280;5006;41.828;23.478;2022-11-21T03:41:20;89133.69;;;14.87;100.00
9935;BME280;5006;41.828;23.478;2022-11-21T03:42:33;89134.03;;;14.67;100.00
9935;BME280;5006;41.828;23.478;2022-11-21T03:43:40;89134.50;;;14.96;100.00
9935;BME280;5006;41.828;23.478;2022-11-21T03:44:45;89143.28;;;14.45;100.00
9935;BME280;5006;41.828;23.478;2022-11-21T03:45:51;89146.91;;;14.17;100.00
9935;BME280;5006;41.828;23.478;2022-11-21T03:46:55;89154.34;;;14.59;100.00
9935;BME280;5006;41.828;23.478;2022-11-21T03:48:02;89151.53;;;14.63;100.00
9935;BME280;5006;41.828;23.478;2022-11-21T03:49:07;89142.59;;;14.32;100.00
9935;BME280;5006;41.828;23.478;2022-11-21T03:50:13;89145.19;;;14.10;100.00
9935;BME280;5006;41.828;23.478;2022-11-21T03:51:22;89127.13;;;14.45;100.00
9935;BME280;5006;41.828;23.478;2022-11-21T03:52:28;89138.22;;;14.90;100.00
9935;BME280;5006;41.828;23.478;2022-11-21T03:53:33;89136.97;;;14.82;100.00
9935;BME280;5006;41.828;23.478;2022-11-21T03:54:39;89136.13;;;14.94;100.00
9935;BME280;5006;41.828;23.478;2022-11-21T03:55:43;89138.91;;;14.81;100.00
9935;BME280;5006;41.828;23.478;2022-11-21T03:56:49;89139.84;;;14.87;100.00
9935;BME280;5006;41.828;23.478;2022-11-21T03:57:54;89137.31;;;14.50;100.00
9935;BME280;5006;41.828;23.478;2022-11-21T03:59:01;89136.53;;;14.28;100.00
9935;BME280;5006;41.828;23.478;2022-11-21T04:00:07;89135.31;;;13.95;100.00
9935;BME280;5006;41.828;23.478;2022-11-21T04:01:14;89137.66;;;14.05;100.00
9935;BME280;5006;41.828;23.478;2022-11-21T04:02:19;89138.25;;;14.34;100.00
9935;BME280;5006;41.828;23.478;2022-11-21T04:03:25;89141.34;;;14.67;100.00
9935;BME280;5006;41.828;23.478;2022-11-21T04:04:30;89136.56;;;14.49;100.00
9935;BME280;5006;41.828;23.478;2022-11-21T04:05:36;89137.25;;;14.41;100.00
9935;BME280;5006;41.828;23.478;2022-11-21T04:06:41;89147.84;;;13.76;100.00
9935;BME280;5006;41.828;23.478;2022-11-21T04:07:46;89144.34;;;14.01;100.00
9935;BME280;5006;41.828;23.478;2022-11-21T04:08:52;89148.31;;;14.09;100.00
9935;BME280;5006;41.828;23.478;2022-11-21T04:09:57;89145.53;;;14.46;100.00
9935;BME280;5006;41.828;23.478;2022-11-21T04:11:02;89141.94;;;14.28;100.00
9935;BME280;5006;41.828;23.478;2022-11-21T04:12:07;89134.72;;;14.59;100.00
9935;BME280;5006;41.828;23.478;2022-11-21T04:13:12;89132.69;;;14.04;100.00
9935;BME280;5006;41.828;23.478;2022-11-21T04:14:19;89132.56;;;14.54;100.00
9935;BME280;5006;41.828;23.478;2022-11-21T04:15:24;89134.81;;;14.34;100.00
9935;BME280;5006;41.828;23.478;2022-11-21T04:16:30;89131.59;;;14.26;100.00
9935;BME280;5006;41.828;23.478;2022-11-21T04:17:37;89125.66;;;14.96;100.00
9935;BME280;5006;41.828;23.478;2022-11-21T04:18:42;89119.44;;;14.86;100.00
9935;BME280;5006;41.828;23.478;2022-11-21T04:19:47;89121.41;;;14.64;100.00
9935;BME280;5006;41.828;23.478;2022-11-21T04:20:55;89111.34;;;14.22;100.00
9935;BME280;5006;41.828;23.478;2022-11-21T04:21:59;89113.81;;;14.16;100.00
9935;BME280;5006;41.828;23.478;2022-11-21T04:23:06;89125.25;;;14.42;100.00
9935;BME280;5006;41.828;23.478;2022-11-21T04:24:11;89133.09;;;14.83;100.00
9935;BME280;5006;41.828;23.478;2022-11-21T04:25:16;89131.47;;;15.15;100.00
9935;BME280;5006;41.828;23.478;2022-11-21T04:26:21;89132.16;;;14.43;100.00
9935;BME280;5006;41.828;23.478;2022-11-21T04:27:27;89134.28;;;14.14;100.00
9935;BME280;5006;41.828;23.478;2022-11-21T04:28:32;89141.69;;;14.35;100.00
9935;BME280;5006;41.828;23.478;2022-11-21T04:29:39;89148.97;;;14.13;100.00
9935;BME280;5006;41.828;23.478;2022-11-21T04:30:45;89151.16;;;14.18;100.00
9935;BME280;5006;41.828;23.478;2022-11-21T04:31:50;89157.53;;;14.45;100.00
9935;BME280;5006;41.828;23.478;2022-11-21T04:32:55;89154.59;;;14.74;100.00
9935;BME280;5006;41.828;23.478;2022-11-21T04:34:00;89156.50;;;14.30;100.00
9935;BME280;5006;41.828;23.478;2022-11-21T04:35:07;89153.63;;;14.00;100.00
9935;BME280;5006;41.828;23.478;2022-11-21T04:36:11;89163.34;;;13.85;100.00
9935;BME280;5006;41.828;23.478;2022-11-21T04:37:17;89165.91;;;14.01;100.00
9935;BME280;5006;41.828;23.478;2022-11-21T04:38:22;89167.50;;;14.57;100.00
9935;BME280;5006;41.828;23.478;2022-11-21T04:39:27;89160.44;;;14.72;100.00
9935;BME280;5006;41.828;23.478;2022-11-21T04:40:32;89178.78;;;14.77;100.00
9935;BME280;5006;41.828;23.478;2022-11-21T04:41:37;89173.09;;;14.63;100.00
9935;BME280;5006;41.828;23.478;2022-11-21T04:42:43;89176.41;;;14.45;100.00
9935;BME280;5006;41.828;23.478;2022-11-21T04:43:49;89172.47;;;14.59;100.00
9935;BME280;5006;41.828;23.478;2022-11-21T04:44:56;89180.53;;;14.93;100.00
9935;BME280;5006;41.828;23.478;2022-11-21T04:46:02;89171.00;;;15.01;100.00
9935;BME280;5006;41.828;23.478;2022-11-21T04:47:07;89181.03;;;15.21;100.00
9935;BME280;5006;41.828;23.478;2022-11-21T04:48:12;89175.81;;;15.06;100.00
9935;BME280;5006;41.828;23.478;2022-11-21T04:49:17;89173.00;;;14.66;100.00
9935;BME280;5006;41.828;23.478;2022-11-21T04:50:23;89163.47;;;14.40;100.00
9935;BME280;5006;41.828;23.478;2022-11-21T04:51:28;89157.81;;;14.81;100.00
9935;BME280;5006;41.828;23.478;2022-11-21T04:52:34;89153.72;;;14.77;100.00
9935;BME280;5006;41.828;23.478;2022-11-21T04:53:39;89150.38;;;14.51;100.00
9935;BME280;5006;41.828;23.478;2022-11-21T04:54:44;89150.28;;;14.21;100.00
9935;BME280;5006;41.828;23.478;2022-11-21T04:55:49;89144.50;;;14.87;100.00
9935;BME280;5006;41.828;23.478;2022-11-21T04:56:54;89135.31;;;14.84;100.00
9935;BME280;5006;41.828;23.478;2022-11-21T04:57:59;89142.84;;;14.46;100.00
9935;BME280;5006;41.828;23.478;2022-11-21T04:59:05;89148.38;;;15.07;100.00
9935;BME280;5006;41.828;23.478;2022-11-21T05:00:14;89153.72;;;14.55;100.00
9935;BME280;5006;41.828;23.478;2022-11-21T05:01:20;89162.44;;;14.13;100.00
9935;BME280;5006;41.828;23.478;2022-11-21T05:02:26;89176.16;;;14.18;100.00
9935;BME280;5006;41.828;23.478;2022-11-21T05:03:30;89176.16;;;14.06;100.00
9935;BME280;5006;41.828;23.478;2022-11-21T05:04:36;89179.19;;;13.95;100.00
9935;BME280;5006;41.828;23.478;2022-11-21T05:05:41;89173.16;;;14.16;100.00
9935;BME280;5006;41.828;23.478;2022-11-21T05:06:47;89170.09;;;14.61;100.00
9935;BME280;5006;41.828;23.478;2022-11-21T05:07:51;89168.91;;;14.62;100.00
9935;BME280;5006;41.828;23.478;2022-11-21T05:08:57;89172.63;;;14.77;100.00
9935;BME280;5006;41.828;23.478;2022-11-21T05:10:02;89170.41;;;14.63;100.00
9935;BME280;5006;41.828;23.478;2022-11-21T05:11:08;89170.09;;;14.61;100.00
9935;BME280;5006;41.828;23.478;2022-11-21T05:12:45;89162.50;;;14.68;100.00
9935;BME280;5006;41.828;23.478;2022-11-21T05:14:08;89177.47;;;15.03;100.00
9935;BME280;5006;41.828;23.478;2022-11-21T05:15:16;89183.25;;;15.35;100.00
9935;BME280;5006;41.828;23.478;2022-11-21T05:16:20;89185.06;;;15.38;99.51
9935;BME280;5006;41.828;23.478;2022-11-21T05:17:26;89187.75;;;15.38;99.27
9935;BME280;5006;41.828;23.478;2022-11-21T05:18:32;89188.06;;;15.40;99.07
9935;BME280;5006;41.828;23.478;2022-11-21T05:19:38;89186.69;;;14.93;100.00
9935;BME280;5006;41.828;23.478;2022-11-21T05:20:42;89181.66;;;14.83;100.00
9935;BME280;5006;41.828;23.478;2022-11-21T05:21:48;89182.41;;;14.83;100.00
9935;BME280;5006;41.828;23.478;2022-11-21T05:22:53;89187.88;;;15.13;100.00
9935;BME280;5006;41.828;23.478;2022-11-21T05:23:59;89176.47;;;15.31;99.39
9935;BME280;5006;41.828;23.478;2022-11-21T05:25:04;89167.34;;;15.37;98.35
9935;BME280;5006;41.828;23.478;2022-11-21T05:26:10;89178.59;;;14.93;100.00
9935;BME280;5006;41.828;23.478;2022-11-21T05:27:15;89159.84;;;14.09;100.00
9935;BME280;5006;41.828;23.478;2022-11-21T05:28:20;89163.56;;;13.53;100.00
9935;BME280;5006;41.828;23.478;2022-11-21T05:29:25;89156.25;;;13.66;100.00
9935;BME280;5006;41.828;23.478;2022-11-21T05:30:33;89149.16;;;13.47;100.00
9935;BME280;5006;41.828;23.478;2022-11-21T05:31:37;89150.63;;;13.85;100.00
9935;BME280;5006;41.828;23.478;2022-11-21T05:32:42;89162.47;;;13.88;100.00
9935;BME280;5006;41.828;23.478;2022-11-21T05:33:47;89160.22;;;13.99;100.00
9935;BME280;5006;41.828;23.478;2022-11-21T05:34:53;89166.69;;;14.48;100.00
9935;BME280;5006;41.828;23.478;2022-11-21T05:35:57;89174.97;;;14.53;100.00
9935;BME280;5006;41.828;23.478;2022-11-21T05:37:04;89185.31;;;14.08;100.00
9935;BME280;5006;41.828;23.478;2022-11-21T05:38:08;89193.06;;;14.31;100.00
9935;BME280;5006;41.828;23.478;2022-11-21T05:39:14;89191.50;;;14.77;100.00
9935;BME280;5006;41.828;23.478;2022-11-21T05:40:19;89197.16;;;14.36;100.00
9935;BME280;5006;41.828;23.478;2022-11-21T05:41:25;89194.66;;;14.41;100.00
9935;BME280;5006;41.828;23.478;2022-11-21T05:42:31;89192.22;;;13.97;100.00
9935;BME280;5006;41.828;23.478;2022-11-21T05:43:56;89198.38;;;13.85;100.00
9935;BME280;5006;41.828;23.478;2022-11-21T05:45:01;89186.50;;;14.54;100.00
9935;BME280;5006;41.828;23.478;2022-11-21T05:46:07;89191.59;;;14.52;100.00
9935;BME280;5006;41.828;23.478;2022-11-21T05:47:12;89198.09;;;14.76;100.00
9935;BME280;5006;41.828;23.478;2022-11-21T05:48:18;89190.63;;;14.80;100.00
9935;BME280;5006;41.828;23.478;2022-11-21T05:49:23;89204.25;;;14.30;100.00
9935;BME280;5006;41.828;23.478;2022-11-21T05:50:29;89202.66;;;14.32;100.00
9935;BME280;5006;41.828;23.478;2022-11-21T05:51:33;89202.91;;;14.00;100.00
9935;BME280;5006;41.828;23.478;2022-11-21T05:52:39;89201.28;;;13.78;100.00